This is the latest recevied weather packets stored in our database for station/object 9M2ZEE-0. If no packets are shown the sender has not sent any weather packets the latest 10 day(s).
| Time | Temp. | Humidity | Pressure | Rain* | Wind** | Luminosity | Snow |
|---|---|---|---|---|---|---|---|
| 1788199418 | 27.22° C | 99% | 1010 hPa | - | - | 0 W/m² | - |
| 1788197595 | 27.78° C | 99% | 1011 hPa | - | - | 0 W/m² | - |
| 1788195773 | 27.78° C | 99% | 1011 hPa | - | - | 0 W/m² | - |
| 1788193950 | 27.78° C | 99% | 1011 hPa | - | - | 0 W/m² | - |
| 1788190305 | 28.33° C | 99% | 1011 hPa | - | - | 0 W/m² | - |
| 1788186659 | 28.89° C | 99% | 1011 hPa | - | - | 0 W/m² | - |
| 1788184838 | 28.89° C | 99% | 1010 hPa | - | - | 0 W/m² | - |
| 1788181189 | 28.33° C | 99% | 1010 hPa | - | - | 0 W/m² | - |
| 1788179365 | 31.67° C | 99% | 1009 hPa | - | - | 0 W/m² | - |
| 1788177541 | 30° C | 99% | 1009 hPa | - | - | 0 W/m² | - |
| 1788175717 | 30.56° C | 99% | 1008 hPa | - | - | 0 W/m² | - |
| 1788173893 | 33.89° C | 99% | 1008 hPa | - | - | 0 W/m² | - |
| 1788172069 | 35.56° C | 89% | 1008 hPa | - | - | 0 W/m² | - |
| 1788170244 | 37.78° C | 72% | 1008 hPa | - | - | 0 W/m² | - |
| 1788168422 | 36.67° C | 79% | 1008 hPa | - | - | 0 W/m² | - |
| 1788166598 | 38.89° C | 70% | 1008 hPa | - | - | 0 W/m² | - |
| 1788164775 | 41.67° C | 61% | 1008 hPa | - | - | 0 W/m² | - |
| 1788162952 | 40° C | 66% | 1008 hPa | - | - | 0 W/m² | - |
| 1788161130 | 36.11° C | 88% | 1008 hPa | - | - | 0 W/m² | - |
| 1788159307 | 36.67° C | 90% | 1009 hPa | - | - | 0 W/m² | - |
| 1788157482 | 35.56° C | 91% | 1009 hPa | - | - | 0 W/m² | - |
| 1788155659 | 36.67° C | 93% | 1009 hPa | - | - | 0 W/m² | - |
| 1788153835 | 35.56° C | 99% | 1010 hPa | - | - | 0 W/m² | - |
| 1788152012 | 35.56° C | 99% | 1010 hPa | - | - | 0 W/m² | - |
| 1788150189 | 35° C | 99% | 1011 hPa | - | - | 0 W/m² | - |
* Rain since midnight (hover to see other rain measurements)
** Current wind speed in m/s (hover to see current wind gust speed)